Latest Coastal Weather Observations for Cape Grim

IDV60701

Issued at 12:21 am EST Sunday 26 April 2015 (issued every 10 minutes, with the page automatically refreshed every 10 minutes)

About coastal observations | Map of coastal stations | Coastal observations for VIC | Marine services | Other Formats
Station Details ID: 091331 Name: CAPE GRIM Lat: -40.68 Lon: 144.69 Height: 86.0 m
Data from the previous 72 hours. | See also: Recent months at Cape Grim
Date/Time
EST
Temp

°C
Wind Pressure Rain
since 9am
mm
Weather Cloud Vis
km
Sea
Height
m
Swell
Dir
 
Speed
knots
Gust
knots
hPa Trend Height
m
Period
s
Dir
26/12:00am 11.1 SSW 20 28 1013.5 - 0.0 - Cloudy - - - - -
 
Date/Time
EST
Temp

°C
Wind Pressure Rain
since 9am
mm
Weather Cloud Vis
km
Sea
Height
m
Swell
Dir
 
Speed
knots
Gust
knots
hPa Trend Height
m
Period
s
Dir
25/11:30pm 10.8 S 15 23 1013.6 - 0.0 - Cloudy - - - - -
25/11:00pm 10.9 S 15 25 1013.7 - 0.0 - Partly cloudy - - - - -
25/10:30pm 10.7 S 15 25 1013.7 - 0.0 - Partly cloudy - - - - -
25/10:25pm 10.7 S 15 25 1013.6 - 0.0 - Partly cloudy - - - - -
25/10:00pm 10.8 S 17 22 1013.6 - 0.0 - Cloudy - - - - -
25/09:30pm 10.8 S 17 23 1013.4 - 0.0 - Partly cloudy - - - - -
25/09:00pm 10.5 S 18 26 1013.3 - 0.0 - Mostly clear - - - - -
25/08:52pm 10.5 S 16 26 1013.2 - 0.0 - Partly cloudy - - - - -
25/08:30pm 10.9 S 19 27 1013.1 - 0.0 - Partly cloudy - - - - -
25/08:12pm 10.9 SSW 19 29 1012.9 - 0.0 - Partly cloudy - - - - -
25/08:00pm 11.2 S 17 23 1012.9 - 0.0 - Partly cloudy - - - - -
25/07:30pm 11.3 S 16 23 1012.7 - 0.0 - Partly cloudy - - - - -
25/07:22pm 11.4 S 18 28 1012.7 - 0.0 - Partly cloudy - - - - -
25/07:00pm 11.7 SSW 20 28 1012.3 - 0.0 - Partly cloudy - - - - -
25/06:30pm 11.5 SSW 20 27 1012.0 - 0.0 - Partly cloudy - - - - -
25/06:00pm 11.7 SSW 23 31 1011.4 - 0.0 - Partly cloudy - - - - -
25/05:30pm 11.7 S 21 27 1011.0 - 0.0 - Partly cloudy - - - - -
25/05:06pm 11.8 SSW 23 33 1010.8 - 0.0 - Partly cloudy - - - - -
25/05:00pm 11.9 SSW 24 33 1010.6 - 0.0 - - - - - - -
25/04:30pm 12.3 SSW 24 33 1010.4 - 0.0 - - - - - - -
25/04:00pm 12.4 SSW 24 32 1010.2 - 0.0 - - - - - - -
25/03:30pm 12.9 SSW 23 32 1010.0 - 0.0 - - - - - - -
25/03:08pm 13.0 SSW 21 31 1009.8 - 0.0 - - - - - - -
25/03:00pm 13.1 SSW 23 29 1009.8 - 0.0 - Mostly clear - - - - -
25/02:30pm 13.2 SSW 23 28 1009.5 - 0.0 - Partly cloudy - - - - -
25/02:00pm 13.3 SSW 20 28 1009.3 - 0.0 - Partly cloudy - - - - -
25/01:30pm 13.4 SSW 20 26 1009.3 - 0.0 - Partly cloudy - - - - -
25/01:00pm 13.8 SSW 20 25 1009.2 - 0.0 - Partly cloudy - - - - -
25/12:30pm 13.5 SSW 18 25 1009.2 - 0.0 - Partly cloudy - - - - -
25/12:00pm 13.8 SSW 17 22 1009.2 - 0.0 - Mostly cloudy - - - - -
25/11:30am 13.9 SSW 15 21 1009.1 - 0.0 - Partly cloudy - - - - -
25/11:00am 13.8 S 13 18 1009.0 - 0.0 - - - - - - -
25/10:30am 13.1 SSW 17 24 1008.8 - 0.0 - Partly cloudy - - - - -
25/10:00am 13.4 SSW 15 19 1008.7 - 0.0 - - - - - - -
25/09:30am 13.1 S 14 20 1008.5 - 0.0 - - - - - - -
25/09:00am 12.8 S 15 21 1008.3 - 2.2 - - - - - - -
25/08:30am 12.4 S 12 16 1008.1 - 2.2 - - - - - - -
25/08:00am 11.9 S 13 18 1007.8 - 2.2 - - - - - - -
25/07:30am 11.3 S 14 19 1007.5 - 2.2 - - - - - - -
25/07:00am 11.3 S 15 21 1007.2 - 2.2 - - - - - - -
25/06:30am 11.4 S 15 20 1007.0 - 2.2 - - - - - - -
25/06:00am 11.7 S 12 17 1006.6 - 2.2 - Cloudy - - - - -
25/05:30am 12.0 S 11 15 1006.4 - 2.2 - - - - - - -
25/05:00am 12.1 S 13 17 1006.2 - 2.2 - - - - - - -
25/04:30am 11.9 S 11 15 1005.9 - 2.2 - - - - - - -
25/04:00am 11.9 S 10 14 1005.7 - 2.2 - Partly cloudy - - - - -
25/03:30am 12.2 S 14 20 1005.5 - 2.2 - Cloudy - - - - -
25/03:00am 12.0 S 11 16 1005.3 - 2.2 - Cloudy - - - - -
25/02:30am 12.3 S 12 16 1005.4 - 2.2 - Partly cloudy - - - - -
25/02:00am 12.5 S 15 21 1005.4 - 2.2 - Cloudy - - - - -
25/01:30am 12.4 S 13 17 1005.4 - 2.2 - Partly cloudy - - - - -
25/01:00am 12.4 S 15 21 1005.2 - 2.2 - - - - - - -
25/12:30am 12.5 S 15 21 1005.2 - 2.2 - - - - - - -
25/12:00am 12.4 S 13 17 1005.1 - 2.2 - Partly cloudy - - - - -
 
Date/Time
EST
Temp

°C
Wind Pressure Rain
since 9am
mm
Weather Cloud Vis
km
Sea
Height
m
Swell
Dir
 
Speed
knots
Gust
knots
hPa Trend Height
m
Period
s
Dir
24/11:30pm 12.6 S 11 16 1005.1 - 2.2 - Partly cloudy - - - - -
24/11:00pm 12.6 S 13 17 1005.0 - 2.2 - Cloudy - - - - -
24/10:30pm 12.7 SSW 13 18 1005.0 - 2.2 - Partly cloudy - - - - -
24/10:00pm 12.8 S 15 23 1004.8 - 2.2 - Partly cloudy - - - - -
24/09:30pm 12.9 S 15 21 1004.6 - 2.2 - Partly cloudy - - - - -
24/09:00pm 13.0 S 16 21 1004.4 - 2.2 - Cloudy - - - - -
24/08:30pm 13.2 SSW 15 21 1004.2 - 2.2 - Cloudy - - - - -
24/08:00pm 13.2 SSW 15 20 1004.0 - 2.2 - Partly cloudy - - - - -
24/07:30pm 13.2 SSW 15 20 1004.0 - 2.2 - Partly cloudy - - - - -
24/07:00pm 13.4 SSW 14 19 1003.7 - 2.2 - Partly cloudy - - - - -
24/06:30pm 13.4 SSW 13 16 1003.3 - 2.2 - Cloudy - - - - -
24/06:00pm 13.4 SSW 9 13 1002.8 - 2.2 - Cloudy - - - - -
24/05:30pm 13.4 SSW 9 12 1002.4 - 2.2 - Partly cloudy - - - - -
24/05:00pm 13.6 SSW 9 11 1002.3 - 2.2 - Partly cloudy - - - - -
24/04:30pm 13.8 SSW 7 10 1002.2 - 2.2 - Partly cloudy - - - - -
24/04:00pm 13.7 SSW 6 9 1002.3 - 2.2 - Partly cloudy - - - - -
24/03:30pm 13.7 S 7 9 1002.4 - 1.8 - Partly cloudy - - - - -
24/03:00pm 13.8 SSW 6 8 1002.6 - 1.6 Rain Cloudy - - - - -
24/02:30pm 13.7 SSW 7 10 1002.3 - 0.8 - Partly cloudy - - - - -
24/02:17pm 14.1 SW 8 10 1002.3 - 0.8 - Partly cloudy - - - - -
24/02:00pm 14.1 SW 6 9 1002.4 - 0.4 - Partly cloudy - - - - -
24/01:30pm 14.2 W 1 4 1002.5 - 0.2 - Partly cloudy - - - - -
24/01:29pm 14.2 W 1 3 1002.5 - 0.2 - Partly cloudy - - - - -
24/01:00pm 14.3 SW 3 5 1002.7 - 0.0 - Partly cloudy - - - - -
24/12:30pm 14.6 SSE 4 5 1002.9 - 0.0 - Cloudy - - - - -
24/12:00pm 14.7 S 3 5 1003.4 - 0.0 - Cloudy - - - - -
24/11:30am 14.3 SSE 6 7 1003.6 - 0.0 - Partly cloudy - - - - -
24/11:00am 13.9 ESE 6 7 1004.0 - 0.0 - Cloudy - - - - -
24/10:30am 13.6 E 7 8 1004.3 - 0.0 - Partly cloudy - - - - -
24/10:00am 13.2 ESE 7 9 1004.4 - 0.0 - Partly cloudy - - - - -
24/09:30am 13.0 SSE 6 8 1004.7 - 0.0 - Partly cloudy - - - - -
24/09:00am 12.6 SE 7 9 1005.0 - 1.6 - Cloudy - - - - -
24/08:30am 12.4 SE 9 11 1005.0 - 1.6 - Partly cloudy - - - - -
24/08:00am 12.1 SSE 5 7 1005.2 - 1.6 - Cloudy - - - - -
24/07:30am 12.0 SE 9 10 1005.1 - 1.6 - Partly cloudy - - - - -
24/07:00am 12.3 SE 8 11 1005.2 - 1.0 - Partly cloudy - - - - -
24/06:30am 12.7 SSE 4 6 1005.5 - 0.6 - Cloudy - - - - -
24/06:00am 12.9 SSE 4 5 1005.6 - 0.4 - Cloudy - - - - -
24/05:30am 13.0 SSE 5 6 1005.7 - 0.4 - Cloudy - - - - -
24/05:00am 13.0 SSE 6 8 1005.8 - 0.4 - Cloudy - - - - -
24/04:30am 13.0 S 7 9 1006.1 - 0.4 - Partly cloudy - - - - -
24/04:00am 13.0 SSE 6 8 1006.5 - 0.4 - Cloudy - - - - -
24/03:30am 12.7 S 5 7 1006.9 - 0.4 - Partly cloudy - - - - -
24/03:00am 12.6 SE 8 10 1007.3 - 0.4 - Cloudy - - - - -
24/02:30am 12.5 SE 8 10 1007.8 - 0.4 - Partly cloudy - - - - -
24/02:00am 12.6 SE 9 10 1008.3 - 0.4 - Partly cloudy - - - - -
24/01:30am 12.5 SSE 6 8 1008.7 - 0.4 - Partly cloudy - - - - -
24/01:00am 12.4 SE 10 12 1009.2 - 0.4 - Partly cloudy - - - - -
24/12:30am 12.7 SE 10 11 1009.6 - 0.0 - Partly cloudy - - - - -
24/12:00am 12.9 SE 8 10 1010.2 - 0.0 - Cloudy - - - - -
 
Date/Time
EST
Temp

°C
Wind Pressure Rain
since 9am
mm
Weather Cloud Vis
km
Sea
Height
m
Swell
Dir
 
Speed
knots
Gust
knots
hPa Trend Height
m
Period
s
Dir
23/11:30pm 12.6 SE 9 11 1010.6 - 0.0 - Partly cloudy - - - - -
23/11:00pm 12.4 SE 10 11 1010.6 - 0.0 - Partly cloudy - - - - -
23/10:30pm 12.3 SE 10 12 1011.0 - 0.0 - - - - - - -
23/10:00pm 12.5 SE 10 12 1011.6 - 0.0 - - - - - - -
23/09:30pm 12.8 SE 9 11 1012.2 - 0.0 - - - - - - -
23/09:00pm 13.3 SE 2 6 1013.0 - 0.0 - Cloudy - - - - -
23/08:30pm 13.8 CALM 0 0 1013.4 - 0.0 - Partly cloudy - - - - -
23/08:00pm 13.6 SE 4 4 1013.9 - 0.0 - Partly cloudy - - - - -
23/07:30pm 13.8 SE 4 4 1014.3 - 0.0 - Partly cloudy - - - - -
23/07:00pm 13.8 ESE 3 5 1014.6 - 0.0 - Partly cloudy - - - - -
23/06:30pm 14.0 E 6 7 1014.7 - 0.0 - Partly cloudy - - - - -
23/06:00pm 14.1 E 6 7 1014.4 - 0.0 - Mostly cloudy - - - - -
23/05:30pm 14.4 E 8 9 1014.3 - 0.0 - Cloudy - - - - -
23/05:00pm 14.7 ENE 9 12 1014.5 - 0.0 - Cloudy - - - - -
23/04:30pm 15.6 ENE 9 12 1014.7 - 0.0 - Partly cloudy - - - - -
23/04:00pm 15.6 ENE 9 12 1015.4 - 0.0 - - - - - - -
23/03:30pm 16.2 ENE 11 13 1015.5 - 0.0 - Partly cloudy - - - - -
23/03:00pm 16.4 ENE 12 15 1015.9 - 0.0 - Mostly clear - - - - -
23/02:30pm 16.2 ENE 11 13 1016.2 - 0.0 - Partly cloudy - - - - -
23/02:00pm 16.0 ENE 10 13 1016.6 - 0.0 - Partly cloudy - - - - -
23/01:30pm 15.5 ENE 11 14 1017.1 - 0.0 - Partly cloudy - - - - -
23/01:00pm 16.5 ENE 13 16 1017.7 - 0.0 - Partly cloudy - - - - -
23/12:30pm 16.0 ENE 13 16 1018.3 - 0.0 - Partly cloudy - - - - -
23/12:00pm 16.5 ENE 13 17 1018.7 - 0.0 - Mostly clear - - - - -
23/11:30am 16.4 E 12 14 1019.4 - 0.0 - Partly cloudy - - - - -
23/11:00am 15.9 ENE 13 16 1019.9 - 0.0 - - - - - - -
23/10:30am 15.7 E 14 18 1020.2 - 0.0 - - - - - - -
23/10:00am 15.0 E 12 15 1020.4 - 0.0 - Partly cloudy - - - - -
23/09:30am 14.6 E 9 12 1020.6 - 0.0 - - - - - - -
23/09:00am 13.1 ESE 9 11 1020.9 - 0.0 - - - - - - -
23/08:30am 12.1 E 11 13 1020.9 - 0.0 - Partly cloudy - - - - -
23/08:00am 11.6 E 12 15 1021.0 - 0.0 - Cloudy - - - - -
23/07:30am 11.2 ESE 12 14 1021.0 - 0.0 - Cloudy - - - - -
23/07:00am 11.0 E 14 15 1020.9 - 0.0 - Cloudy - - - - -
23/06:30am 10.8 E 14 15 1020.9 - 0.0 - Cloudy - - - - -
23/06:00am 10.5 ESE 13 15 1020.9 - 0.0 - Mostly cloudy - - - - -
23/05:30am 10.1 ESE 14 15 1020.9 - 0.0 - Partly cloudy - - - - -
23/05:00am 10.1 ESE 13 14 1020.8 - 0.0 - - - - - - -
23/04:30am 10.6 SE 11 13 1021.0 - 0.0 - - - - - - -
23/04:00am 10.6 SSE 7 9 1021.2 - 0.0 - Partly cloudy - - - - -
23/03:30am 10.6 SE 9 11 1021.5 - 0.0 - - - - - - -
23/03:00am 10.6 S 6 8 1021.7 - 0.0 - - - - - - -
23/02:30am 11.2 SSE 9 13 1022.0 - 0.0 - - - - - - -
23/02:00am 11.4 SSE 8 10 1022.3 - 0.0 - - - - - - -
23/01:30am 11.4 SSE 7 9 1022.6 - 0.0 - - - - - - -
23/01:00am 11.9 S 8 10 1022.8 - 0.0 - - - - - - -
23/12:30am 12.4 S 8 11 1023.1 - 0.0 - - - - - - -

Other Formats:

Comma delimited format used in spreadsheet applications
http://www.bom.gov.au/fwo/IDV60701/IDV60701.95954.axf

JavaScript Object Notation format (JSON) in row-major order
http://www.bom.gov.au/fwo/IDV60701/IDV60701.95954.json